Terminal Aerodrome Forecast
Issued by NWS Amarillo, TX

Home | Current Version | Previous Version | Text Only | Print | Product List | Glossary On
Versions: 1 2 3 4 5 6 7 8 9 10 11 12 13 14 15 16 17
694
FTUS44 KAMA 291724
TAFAMA
TAF
KAMA 291724Z 2918/3018 15006KT P6SM SKC
     FM300200 VRB06KT P6SM VCSH BKN060
     FM300500 35005KT P6SM SCT150
     FM300800 32006KT 6SM BR SCT015 SCT200
     FM301300 25006KT P6SM FEW200=

USA.gov is the U.S. government's official web portal to all federal, state and local government web resources and services.